Thursday, November 23, 2017, 7:21 PM EST
Back to Local

KFZY, Fulton Oswego County Airport

Location: Fulton, NY, United States Lat: 43.35
Local Time: 7:21 PM EST ( 0:21 GMT) Lon: -76.383
Time Zone: US/Eastern Elev: 475 ft

Show me the last for .
Show Coded

Time T Td Feel RH Dir Speed Gust Alt SLP Vis Weather Sky Remarks
2017-11-23 18:54 35 26 28 69 200° 9 - 29.97 29.98 10 BKN034 OVC050 6-hr Min Temp (7pm): 35.1°F
6-hr Max Temp (7pm): 36.0°F
2017-11-23 18:22 35 26 29 69 190° 8 - 29.97 - 10 BKN033 OVC100 None
2017-11-23 17:54 35 25 29 66 190° 8 - 29.97 29.98 10 BKN027 OVC038 None
2017-11-23 16:54 35 24 28 63 200° 9 - 29.97 29.98 10 OVC022 None
2017-11-23 16:31 35 24 29 63 190° 8 - 29.98 - 10 BKN025 OVC031 None
2017-11-23 15:54 35 23 29 61 210° 8 - 29.98 30.00 10 SCT036 SCT065 OVC100 None
2017-11-23 14:54 35 22 28 58 210° 9 - 29.99 30.00 10 SCT039 OVC100 None
2017-11-23 13:54 35 22 27 58 230° 12 - 30.00 30.02 10 OVC033 None
2017-11-23 12:54 35 23 29 61 220° 7 - 30.03 30.04 10 OVC037 6-hr Min Temp (1pm): 27.0°F
6-hr Max Temp (1pm): 35.1°F
2017-11-23 11:54 34 23 26 63 180° 10 - 30.05 30.07 10 FEW041 OVC095 None
2017-11-23 10:54 32 24 26 72 210° 7 - 30.10 30.11 10 OVC036 None
2017-11-23 09:54 30 26 24 84 190° 6 - 30.12 30.13 10 OVC034 None
2017-11-23 08:54 29 24 24 81 220° 5 - 30.13 30.14 8 OVC031 None
2017-11-23 07:54 29 23 24 78 200° 5 - 30.12 30.14 10 BKN024 OVC031 None
2017-11-23 07:40 28 22 23 77 200° 5 - 30.12 - 10 BKN025 OVC038 None
2017-11-23 06:54 27 21 20 77 210° 6 - 30.13 30.14 10 OVC042 24-hr Precip Total (7am): 0.07"
6-hr Min Temp (7am): 25.0°F
6-hr Max Temp (7am): 28.0°F
2017-11-23 05:54 27 20 - 74 - Calm - 30.13 30.15 10 BKN041 None
2017-11-23 04:54 26 19 21 74 310° 5 - 30.15 30.16 10 SCT038 None
2017-11-23 03:54 26 18 18 70 270° 7 - 30.15 30.16 10 CLR None
2017-11-23 02:54 26 19 19 74 290° 6 - 30.14 30.16 10 CLR None
2017-11-23 01:54 27 19 19 71 310° 8 - 30.15 30.16 10 SCT026 None
2017-11-23 01:25 28 19 19 68 300° 9 - 30.14 - 10 BKN028 None
2017-11-23 00:54 28 19 18 68 300° 12 - 30.15 30.16 10 BKN031 6-hr Min Temp (1am): 28.0°F
6-hr Max Temp (1am): 32.0°F
2017-11-23 00:49 28 19 14 68 310° 12 24 30.14 - 10 BKN031 None
2017-11-22 23:54 30 20 19 65 300° 15 - 30.15 30.16 10 OVC029 24-hr Min Temp (12am): 30.0°F
24-hr Max Temp (12am): 45.0°F
2017-11-22 23:05 30 20 22 65 300° 9 - 30.16 - 10 OVC029 None
2017-11-22 22:54 30 20 21 65 300° 12 - 30.16 30.18 10 OVC030 None
2017-11-22 22:47 30 19 21 63 300° 10 - 30.16 - 10 OVC030 None
2017-11-22 21:54 30 20 20 65 310° 14 - 30.17 30.19 10 OVC028 None
2017-11-22 21:33 30 21 20 68 310° 13 - 30.17 - 10 OVC028 None
2017-11-22 20:54 30 21 20 68 290° 14 - 30.17 30.19 10 OVC033 None
2017-11-22 20:03 31 21 17 66 300° 15 25 30.17 - 10 OVC030 None
2017-11-22 19:54 31 22 18 68 310° 16 21 30.17 30.19 10 BKN028 OVC033 None

Support USWX by starting your Amazon purchase here.